createdAt,value
2022-10-18T03:11:02.479Z,101511.06
2022-10-18T03:14:04.914Z,101511.06
2022-10-18T03:17:07.045Z,101517.31
2022-10-18T03:20:09.902Z,101520.97
2022-10-18T03:23:11.951Z,101518.22
2022-10-18T03:26:14.320Z,101529.28
2022-10-18T03:29:16.364Z,101523.84
2022-10-18T03:32:19.478Z,101524.53
2022-10-18T03:35:22.038Z,101528.16
2022-10-18T03:38:24.354Z,101529.59
2022-10-18T03:41:26.946Z,101529.13
2022-10-18T03:44:29.297Z,101526.28
2022-10-18T03:47:31.415Z,101526.94
2022-10-18T03:50:33.778Z,101523.31
2022-10-18T03:53:35.837Z,101526.44
2022-10-18T03:56:38.166Z,101529.31
2022-10-18T03:59:40.259Z,101531.78
2022-10-18T04:02:42.647Z,101534.91
2022-10-18T04:05:46.413Z,101531.31
2022-10-18T04:08:48.491Z,101531.16
2022-10-18T04:11:51.633Z,101524.41
2022-10-18T04:14:55.554Z,101523.22
2022-10-18T04:17:58.375Z,101523.12
2022-10-18T04:21:00.442Z,101522.56
2022-10-18T04:24:02.853Z,101530.88
2022-10-18T04:27:05.718Z,101519.16
2022-10-18T04:30:08.516Z,101521.28
2022-10-18T04:33:10.575Z,101522.44
2022-10-18T04:36:12.901Z,101520.25
2022-10-18T04:39:15.081Z,101527.75
2022-10-18T04:42:17.382Z,101519.59
2022-10-18T04:45:19.421Z,101520.25
2022-10-18T04:48:21.709Z,101518.78
2022-10-18T04:51:23.809Z,101507.34
2022-10-18T04:54:27.957Z,101509.84
2022-10-18T04:57:30.867Z,101500.50
2022-10-18T05:00:36.520Z,101511.00
2022-10-18T05:03:41.847Z,101508.28
2022-10-18T05:06:44.208Z,101500.59
2022-10-18T05:09:46.282Z,101497.31
2022-10-18T05:12:49.266Z,101500.50
2022-10-18T05:15:51.767Z,101502.94
2022-10-18T05:18:54.359Z,101496.19
2022-10-18T05:21:56.414Z,101500.72
2022-10-18T05:24:58.790Z,101499.16
2022-10-18T05:28:06.292Z,101501.44
2022-10-18T05:31:13.360Z,101499.28
2022-10-18T05:34:16.164Z,101505.63
2022-10-18T05:37:18.906Z,101505.75
2022-10-18T05:40:21.026Z,101505.88
2022-10-18T05:43:23.557Z,101501.94
2022-10-18T05:46:25.614Z,101505.03
2022-10-18T05:49:27.941Z,101500.56
2022-10-18T05:52:30.299Z,101494.19
2022-10-18T05:55:32.920Z,101501.13
2022-10-18T05:58:35.519Z,101505.47
2022-10-18T06:01:39.818Z,101505.88
2022-10-18T06:04:42.293Z,101509.78
2022-10-18T06:07:44.415Z,101501.91
2022-10-18T06:10:46.779Z,101505.34
2022-10-18T06:13:50.506Z,101497.78
2022-10-18T06:16:53.080Z,101502.41
2022-10-18T06:19:55.125Z,101500.75
2022-10-18T06:22:57.455Z,101507.41
2022-10-18T06:26:01.840Z,101507.22
2022-10-18T06:29:04.234Z,101523.94
2022-10-18T06:32:07.826Z,101519.94
2022-10-18T06:35:10.230Z,101522.75
2022-10-18T06:38:12.296Z,101515.69
2022-10-18T06:41:14.828Z,101519.28
2022-10-18T06:44:17.402Z,101520.28
2022-10-18T06:47:19.735Z,101519.97
2022-10-18T06:50:21.804Z,101512.41
2022-10-18T06:53:29.101Z,101519.62
2022-10-18T06:56:31.321Z,101515.03
2022-10-18T06:59:33.634Z,101519.84
2022-10-18T07:02:37.351Z,101526.47
2022-10-18T07:05:39.951Z,101534.19
2022-10-18T07:08:42.727Z,101532.41
2022-10-18T07:11:45.069Z,101539.84
2022-10-18T07:14:47.141Z,101524.97
2022-10-18T07:17:50.170Z,101529.97
2022-10-18T07:20:52.229Z,101526.19
2022-10-18T07:23:54.797Z,101520.78
2022-10-18T07:26:56.874Z,101517.75
2022-10-18T07:29:59.189Z,101513.19
2022-10-18T07:33:01.225Z,101510.31
2022-10-18T07:36:05.883Z,101510.66
2022-10-18T07:39:08.265Z,101500.94
2022-10-18T07:42:10.584Z,101499.50
2022-10-18T07:45:13.611Z,101499.50
2022-10-18T07:48:15.919Z,101502.13
2022-10-18T07:51:20.567Z,101507.09
2022-10-18T07:54:22.898Z,101507.75
2022-10-18T07:57:24.930Z,101503.78
2022-10-18T08:00:27.241Z,101499.62
2022-10-18T08:03:29.603Z,101495.56
2022-10-18T08:06:31.658Z,101498.00
2022-10-18T08:09:34.045Z,101491.22
2022-10-18T08:12:36.096Z,101483.19
2022-10-18T08:15:38.412Z,101475.31
2022-10-18T08:18:41.067Z,101473.28
2022-10-18T08:21:43.362Z,101465.84
2022-10-18T08:24:45.422Z,101469.44
2022-10-18T08:27:47.739Z,101463.06
2022-10-18T08:30:49.791Z,101463.16
2022-10-18T08:33:52.227Z,101453.31
2022-10-18T08:36:54.307Z,101458.09
2022-10-18T08:39:56.617Z,101447.47
2022-10-18T08:46:49.413Z,101440.47
2022-10-18T08:49:56.462Z,101445.59
2022-10-18T08:53:05.204Z,101436.38
2022-10-18T08:56:14.593Z,101431.09
2022-10-18T08:59:16.927Z,101424.03
2022-10-18T09:02:24.794Z,101418.47
2022-10-18T09:05:36.002Z,101417.56
2022-10-18T09:08:46.101Z,101417.22
2022-10-18T09:12:13.218Z,101414.84
2022-10-18T09:15:25.840Z,101407.41
2022-10-18T09:18:54.664Z,101399.22
2022-10-18T09:22:13.154Z,101409.84
2022-10-18T09:25:21.381Z,101391.94
2022-10-18T09:28:42.762Z,101397.28
2022-10-18T09:32:04.645Z,101403.50
2022-10-18T09:35:29.522Z,101403.66
2022-10-18T09:38:37.765Z,101395.50
2022-10-18T09:41:43.558Z,101392.72
2022-10-18T09:44:51.103Z,101385.69
2022-10-18T09:48:18.738Z,101376.97
2022-10-18T09:51:25.405Z,101364.03
2022-10-18T09:54:33.340Z,101365.19
2022-10-18T09:57:58.554Z,101361.72
2022-10-18T10:01:01.233Z,101359.91
2022-10-18T10:04:03.649Z,101359.69
2022-10-18T10:07:11.593Z,101360.62
2022-10-18T10:10:16.970Z,101339.88
2022-10-18T10:13:26.025Z,101339.28
2022-10-18T10:16:28.475Z,101326.56
2022-10-18T10:19:33.522Z,101328.16
2022-10-18T10:22:41.642Z,101326.75
2022-10-18T10:25:43.789Z,101324.94
2022-10-18T10:28:48.833Z,101325.84
2022-10-18T10:32:03.625Z,101311.09
2022-10-18T10:35:34.006Z,101297.47
2022-10-18T10:38:44.376Z,101289.56
2022-10-18T10:41:55.830Z,101287.69
2022-10-18T10:44:58.204Z,101274.91
2022-10-18T10:48:07.302Z,101273.34
2022-10-18T10:51:11.027Z,101270.16
2022-10-18T10:54:20.363Z,101273.31
2022-10-18T10:57:25.821Z,101259.78
2022-10-18T11:00:35.502Z,101258.53
2022-10-18T11:03:46.772Z,101249.59
2022-10-18T11:06:59.913Z,101250.25
2022-10-18T11:10:15.428Z,101247.63
2022-10-18T11:13:45.604Z,101222.63
2022-10-18T11:17:25.177Z,101229.59
2022-10-18T11:20:33.472Z,101222.75
2022-10-18T11:23:38.382Z,101217.69
2022-10-18T11:26:55.116Z,101221.16
2022-10-18T11:30:26.653Z,101209.94
2022-10-18T11:34:03.955Z,101207.44
2022-10-18T11:37:51.634Z,101206.63
2022-10-18T11:41:19.424Z,101198.50
2022-10-18T11:44:38.145Z,101195.59
2022-10-18T11:48:18.238Z,101192.38
2022-10-18T11:52:06.862Z,101189.06
2022-10-18T11:55:30.318Z,101192.69
2022-10-18T11:58:41.207Z,101181.59
2022-10-18T12:02:21.049Z,101184.16
2022-10-18T12:05:25.133Z,101175.47
2022-10-18T12:08:39.859Z,101170.53
2022-10-18T12:11:56.006Z,101166.44
2022-10-18T12:15:20.611Z,101161.00
2022-10-18T12:18:25.952Z,101155.59
2022-10-18T12:21:31.251Z,101149.47
2022-10-18T12:24:35.564Z,101152.78
2022-10-18T12:27:45.421Z,101140.56
2022-10-18T12:31:18.946Z,101138.66
2022-10-18T12:34:40.905Z,101136.59
2022-10-18T12:37:49.059Z,101122.75
2022-10-18T12:40:53.881Z,101119.22
2022-10-18T12:44:04.767Z,101120.78
2022-10-18T12:47:06.901Z,101104.53
2022-10-18T12:50:27.790Z,101102.38
2022-10-18T12:53:31.622Z,101107.87
2022-10-18T12:56:37.903Z,101097.97
2022-10-18T12:59:40.406Z,101088.34
2022-10-18T13:02:42.631Z,101088.41
2022-10-18T13:05:56.231Z,101088.78
2022-10-18T13:09:21.451Z,101088.66
2022-10-18T13:12:23.428Z,101072.84
2022-10-18T13:15:50.101Z,101074.13
2022-10-18T13:18:59.580Z,101065.75
2022-10-18T13:22:10.613Z,101064.94
2022-10-18T13:25:29.158Z,101063.03
2022-10-18T13:29:01.107Z,101067.31
2022-10-18T13:32:24.088Z,101061.69
2022-10-18T13:36:00.096Z,101058.03
2022-10-18T13:39:05.846Z,101060.00
2022-10-18T13:42:14.082Z,101059.19
2022-10-18T13:45:31.400Z,101065.28
2022-10-18T13:48:33.663Z,101058.25
2022-10-18T13:51:52.216Z,101058.84
2022-10-18T13:55:19.553Z,101058.13
2022-10-18T13:58:49.292Z,101051.94
2022-10-18T14:02:10.700Z,101044.47
2022-10-18T14:05:25.189Z,101047.81
2022-10-18T14:08:37.515Z,101043.19
2022-10-18T14:11:46.300Z,101032.69
2022-10-18T14:15:10.109Z,101032.59
2022-10-18T14:18:18.291Z,101025.88
2022-10-18T14:21:31.422Z,101030.44
2022-10-18T14:24:34.562Z,101031.16
2022-10-18T14:27:37.057Z,101028.09
2022-10-18T14:30:59.346Z,101018.91
2022-10-18T14:34:01.547Z,101022.53
2022-10-18T14:37:03.927Z,101016.25
2022-10-18T14:40:06.303Z,101013.47
2022-10-18T14:43:19.477Z,101009.28
2022-10-18T14:46:28.954Z,101004.94
2022-10-18T14:49:33.475Z,100993.63
2022-10-18T14:52:35.973Z,100997.41
2022-10-18T14:55:38.982Z,100987.41
2022-10-18T14:58:42.207Z,100992.22
2022-10-18T15:02:24.832Z,100988.34
2022-10-18T15:05:27.282Z,100984.81
2022-10-18T15:08:37.635Z,100975.78
2022-10-18T15:11:41.447Z,100972.09
2022-10-18T15:14:45.767Z,100980.56
